Time;durP1;ratioP1;P1;durP2;ratioP2;P2;SDS_P1;SDS_P2;PMS_P1;PMS_P2;Temp;Humidity;BMP_temperature;BMP_pressure;BME280_temperature;BME280_humidity;BME280_pressure;Samples;Min_cycle;Max_cycle;Signal;HPM_P1;HPM_P2
2022/03/27 00:02:25;;;;;;;23.07;15.60;;;;;;;;;;4934183;29;20805;-77
2022/03/27 00:04:51;;;;;;;20.60;14.48;;;;;;;;;;4938387;29;20424;-75
2022/03/27 00:07:17;;;;;;;21.27;15.63;;;;;;;;;;4939621;29;20687;-76
2022/03/27 00:09:43;;;;;;;20.02;14.90;;;;;;;;;;4939614;29;20810;-79
2022/03/27 00:12:09;;;;;;;21.00;15.30;;;;;;;;;;4939176;29;20200;-76
2022/03/27 00:14:35;;;;;;;23.27;15.57;;;;;;;;;;4939591;29;20429;-76
2022/03/27 00:17:01;;;;;;;21.93;15.57;;;;;;;;;;4939748;29;20177;-76
2022/03/27 00:19:27;;;;;;;23.33;15.97;;;;;;;;;;4939691;29;20812;-77
2022/03/27 00:21:53;;;;;;;20.23;14.83;;;;;;;;;;4939229;29;20438;-76
2022/03/27 00:24:19;;;;;;;23.70;15.40;;;;;;;;;;4939253;29;20446;-77
2022/03/27 00:26:45;;;;;;;27.85;15.45;;;;;;;;;;4939668;29;20785;-77
2022/03/27 00:29:11;;;;;;;24.63;16.53;;;;;;;;;;4938058;29;20314;-77
2022/03/27 00:31:38;;;;;;;23.90;16.00;;;;;;;;;;4939015;29;20781;-77
2022/03/27 00:34:05;;;;;;;22.27;14.77;;;;;;;;;;4939187;29;20430;-77
2022/03/27 00:36:31;;;;;;;20.48;15.05;;;;;;;;;;4939003;29;20243;-77
2022/03/27 00:38:57;;;;;;;24.97;15.33;;;;;;;;;;4939147;29;20186;-76
2022/03/27 00:41:24;;;;;;;26.50;17.07;;;;;;;;;;4938620;29;20920;-78
2022/03/27 00:43:50;;;;;;;22.05;16.30;;;;;;;;;;4937762;29;20420;-78
2022/03/27 00:46:16;;;;;;;24.33;15.40;;;;;;;;;;4938878;29;20262;-76
2022/03/27 00:48:42;;;;;;;21.83;16.13;;;;;;;;;;4938657;29;20311;-77
2022/03/27 00:51:08;;;;;;;24.63;15.43;;;;;;;;;;4937208;29;20447;-76
2022/03/27 00:53:34;;;;;;;25.25;16.83;;;;;;;;;;4938757;29;20182;-77
2022/03/27 00:56:00;;;;;;;24.23;15.48;;;;;;;;;;4938753;29;20174;-76
2022/03/27 00:58:26;;;;;;;25.35;16.73;;;;;;;;;;4938720;29;20234;-77
2022/03/27 01:00:56;;;;;;;21.30;15.18;;;;;;;;;;4938255;29;20578;-77
2022/03/27 01:03:24;;;;;;;22.27;15.93;;;;;;;;;;4937456;29;20186;-75
2022/03/27 01:05:51;;;;;;;23.90;15.98;;;;;;;;;;4938865;29;20516;-77
2022/03/27 01:09:35;;;;;;;23.05;15.68;;;;;;;;;;4938808;29;20209;-75
2022/03/27 01:11:10;;;;;;;22.00;14.13;;;;;;;;;;4938306;29;20206;-77
2022/03/27 01:13:36;;;;;;;19.60;13.75;;;;;;;;;;4938523;29;20196;-76
2022/03/27 01:16:02;;;;;;;20.60;13.33;;;;;;;;;;4938536;29;20516;-76
2022/03/27 01:18:28;;;;;;;18.58;14.18;;;;;;;;;;4937302;29;20802;-77
2022/03/27 01:20:54;;;;;;;18.50;13.60;;;;;;;;;;4937981;29;20293;-75
2022/03/27 01:23:20;;;;;;;22.93;15.13;;;;;;;;;;4938179;29;20443;-78
2022/03/27 01:25:47;;;;;;;21.70;14.80;;;;;;;;;;4938327;29;20430;-77
2022/03/27 01:28:14;;;;;;;25.25;16.65;;;;;;;;;;4938050;29;20457;-77
2022/03/27 01:30:40;;;;;;;20.98;14.55;;;;;;;;;;4937748;29;20184;-76
2022/03/27 01:33:09;;;;;;;23.33;15.10;;;;;;;;;;4937024;29;20172;-75
2022/03/27 01:35:35;;;;;;;21.23;14.20;;;;;;;;;;4937037;29;20251;-77
2022/03/27 01:38:01;;;;;;;19.10;14.00;;;;;;;;;;4938019;29;20184;-77
2022/03/27 01:40:27;;;;;;;19.55;14.15;;;;;;;;;;4937813;29;20298;-76
2022/03/27 01:42:55;;;;;;;21.00;13.93;;;;;;;;;;4937966;29;20218;-76
2022/03/27 01:45:22;;;;;;;21.92;14.02;;;;;;;;;;4938021;29;20417;-78
2022/03/27 01:47:47;;;;;;;23.45;15.63;;;;;;;;;;4937818;29;20214;-76
2022/03/27 01:50:13;;;;;;;19.13;14.30;;;;;;;;;;4937501;29;20183;-76
2022/03/27 01:52:39;;;;;;;22.17;13.70;;;;;;;;;;4936436;29;20440;-75
2022/03/27 01:55:11;;;;;;;21.23;13.95;;;;;;;;;;4937635;29;20440;-76
2022/03/27 01:57:39;;;;;;;18.77;12.40;;;;;;;;;;4937746;29;20296;-76
2022/03/27 02:00:06;;;;;;;17.02;12.00;;;;;;;;;;4937803;29;20259;-77
2022/03/27 02:02:32;;;;;;;20.65;14.18;;;;;;;;;;4937356;29;20192;-75
2022/03/27 02:04:58;;;;;;;21.70;14.68;;;;;;;;;;4937478;29;20193;-75
2022/03/27 02:07:24;;;;;;;23.55;14.00;;;;;;;;;;4937385;29;20178;-75
2022/03/27 02:09:50;;;;;;;22.92;14.55;;;;;;;;;;4937557;29;20173;-76
2022/03/27 02:12:16;;;;;;;27.10;14.98;;;;;;;;;;4937046;29;20235;-75
2022/03/27 02:14:43;;;;;;;25.35;16.23;;;;;;;;;;4937547;29;20182;-77
2022/03/27 02:17:10;;;;;;;22.45;15.40;;;;;;;;;;4937216;29;20179;-76
2022/03/27 02:19:36;;;;;;;24.83;15.48;;;;;;;;;;4937273;29;20215;-75
2022/03/27 02:22:02;;;;;;;23.17;14.93;;;;;;;;;;4935661;29;20201;-76
2022/03/27 02:24:28;;;;;;;21.08;13.35;;;;;;;;;;4937218;29;20281;-76
2022/03/27 02:26:54;;;;;;;22.30;14.40;;;;;;;;;;4936916;29;20261;-77
2022/03/27 02:29:20;;;;;;;22.63;15.13;;;;;;;;;;4936936;29;20269;-76
2022/03/27 02:31:47;;;;;;;20.23;15.10;;;;;;;;;;4936977;29;20200;-76
2022/03/27 02:34:14;;;;;;;20.05;13.60;;;;;;;;;;4937183;29;20497;-77
2022/03/27 02:36:40;;;;;;;22.25;15.18;;;;;;;;;;4937000;29;20176;-74
2022/03/27 02:39:06;;;;;;;27.05;15.90;;;;;;;;;;4935698;29;20666;-77
2022/03/27 02:41:32;;;;;;;25.70;15.10;;;;;;;;;;4935177;29;20209;-75
2022/03/27 02:43:58;;;;;;;22.90;15.30;;;;;;;;;;4936809;29;20186;-76
2022/03/27 02:46:24;;;;;;;26.35;15.85;;;;;;;;;;4936857;29;20418;-76
2022/03/27 02:48:50;;;;;;;21.80;14.80;;;;;;;;;;4936691;29;20213;-76
2022/03/27 02:51:16;;;;;;;27.20;16.20;;;;;;;;;;4936251;29;20957;-77
2022/03/27 02:53:42;;;;;;;21.42;15.18;;;;;;;;;;4936531;29;20417;-77
2022/03/27 02:56:09;;;;;;;23.20;15.10;;;;;;;;;;4936610;29;20514;-76
2022/03/27 02:58:35;;;;;;;19.85;15.10;;;;;;;;;;4936645;29;20418;-78
2022/03/27 03:01:01;;;;;;;23.23;15.07;;;;;;;;;;4936048;29;20203;-77
2022/03/27 03:03:28;;;;;;;22.45;15.40;;;;;;;;;;4936452;29;20182;-76
2022/03/27 03:05:54;;;;;;;24.70;15.50;;;;;;;;;;4936356;29;20177;-79
2022/03/27 03:08:20;;;;;;;20.40;14.45;;;;;;;;;;4936322;29;20218;-77
2022/03/27 03:10:46;;;;;;;23.97;15.53;;;;;;;;;;4935984;29;20244;-76
2022/03/27 03:13:13;;;;;;;20.92;15.32;;;;;;;;;;4936598;29;20493;-78
2022/03/27 03:15:39;;;;;;;25.55;16.00;;;;;;;;;;4936250;29;20189;-78
2022/03/27 03:18:06;;;;;;;24.90;16.90;;;;;;;;;;4936344;29;20211;-77
2022/03/27 03:20:33;;;;;;;22.00;15.70;;;;;;;;;;4936083;29;20637;-76
2022/03/27 03:22:59;;;;;;;25.02;15.75;;;;;;;;;;4936121;29;20534;-77
2022/03/27 03:25:25;;;;;;;32.00;16.25;;;;;;;;;;4936320;29;20178;-77
2022/03/27 03:27:51;;;;;;;23.88;16.20;;;;;;;;;;4936085;29;20674;-76
2022/03/27 03:30:17;;;;;;;21.42;14.10;;;;;;;;;;4935876;29;20186;-78
2022/03/27 03:32:43;;;;;;;24.08;16.15;;;;;;;;;;4936082;29;20574;-77
2022/03/27 03:35:10;;;;;;;21.05;15.02;;;;;;;;;;4919073;29;20188;-77
2022/03/27 03:37:36;;;;;;;24.50;15.77;;;;;;;;;;4936044;29;20184;-77
2022/03/27 03:40:03;;;;;;;26.08;16.08;;;;;;;;;;4935423;29;20178;-76
2022/03/27 03:42:29;;;;;;;25.67;15.77;;;;;;;;;;4934526;29;20207;-78
2022/03/27 03:44:55;;;;;;;25.45;16.48;;;;;;;;;;4934798;29;20213;-77
2022/03/27 03:47:21;;;;;;;24.83;15.85;;;;;;;;;;4935982;29;20233;-79
2022/03/27 03:49:47;;;;;;;27.95;14.73;;;;;;;;;;4935827;29;20594;-77
2022/03/27 03:52:13;;;;;;;24.23;16.33;;;;;;;;;;4934140;29;20249;-79
2022/03/27 03:54:39;;;;;;;27.67;15.77;;;;;;;;;;4935905;29;20969;-77
2022/03/27 03:57:06;;;;;;;27.80;17.25;;;;;;;;;;4935879;29;20179;-77
2022/03/27 03:59:36;;;;;;;23.10;15.93;;;;;;;;;;4935907;29;20173;-76
2022/03/27 04:02:05;;;;;;;25.85;15.38;;;;;;;;;;4935239;29;20276;-77
2022/03/27 04:04:32;;;;;;;28.73;18.65;;;;;;;;;;4935851;29;20179;-76
2022/03/27 04:06:58;;;;;;;24.10;16.88;;;;;;;;;;4935709;29;20232;-77
2022/03/27 04:09:24;;;;;;;24.50;16.52;;;;;;;;;;4935735;29;20205;-76
2022/03/27 04:11:50;;;;;;;28.77;17.15;;;;;;;;;;4935283;29;20197;-78
2022/03/27 04:14:16;;;;;;;27.07;17.00;;;;;;;;;;4935685;29;20661;-78
2022/03/27 04:16:42;;;;;;;31.67;15.98;;;;;;;;;;4934592;29;20413;-75
2022/03/27 04:19:08;;;;;;;23.53;16.00;;;;;;;;;;4935737;29;20187;-77
2022/03/27 04:21:34;;;;;;;27.70;16.70;;;;;;;;;;4935388;29;20493;-76
2022/03/27 04:24:00;;;;;;;23.63;16.10;;;;;;;;;;4935492;29;20202;-76
2022/03/27 04:26:26;;;;;;;25.43;15.30;;;;;;;;;;4935674;29;20448;-76
2022/03/27 04:28:52;;;;;;;27.27;16.87;;;;;;;;;;4935759;29;20466;-79
2022/03/27 04:31:18;;;;;;;24.70;15.80;;;;;;;;;;4935467;29;20452;-76
2022/03/27 04:33:44;;;;;;;20.38;15.25;;;;;;;;;;4935710;29;20413;-76
2022/03/27 04:36:10;;;;;;;23.38;14.57;;;;;;;;;;4934359;29;20180;-79
2022/03/27 04:38:36;;;;;;;24.38;15.48;;;;;;;;;;4935626;29;20205;-77
2022/03/27 04:41:03;;;;;;;25.10;16.60;;;;;;;;;;4935272;29;20212;-78
2022/03/27 04:43:29;;;;;;;24.33;16.55;;;;;;;;;;4935491;29;20425;-76
2022/03/27 04:45:55;;;;;;;26.55;16.73;;;;;;;;;;4935430;29;20190;-77
2022/03/27 04:48:21;;;;;;;24.83;16.90;;;;;;;;;;4935242;29;20300;-77
2022/03/27 04:50:48;;;;;;;26.70;16.00;;;;;;;;;;4935996;29;20206;-77
2022/03/27 04:53:14;;;;;;;25.38;17.05;;;;;;;;;;4938820;29;20166;-77
2022/03/27 04:55:40;;;;;;;24.70;16.80;;;;;;;;;;4938997;29;20258;-76
2022/03/27 04:58:09;;;;;;;25.10;17.13;;;;;;;;;;4938858;29;20237;-77
2022/03/27 05:00:36;;;;;;;25.67;16.42;;;;;;;;;;4938178;29;20902;-78
2022/03/27 05:03:02;;;;;;;26.15;16.80;;;;;;;;;;4937341;29;20192;-78
2022/03/27 05:05:28;;;;;;;25.87;15.90;;;;;;;;;;4937625;29;20519;-76
2022/03/27 05:07:54;;;;;;;29.00;18.30;;;;;;;;;;4938583;29;20504;-77
2022/03/27 05:10:20;;;;;;;27.33;17.60;;;;;;;;;;4938252;29;20185;-79
2022/03/27 05:12:46;;;;;;;29.67;19.00;;;;;;;;;;4937097;29;20479;-77
2022/03/27 05:15:12;;;;;;;29.52;19.80;;;;;;;;;;4938596;29;20184;-76
2022/03/27 05:17:45;;;;;;;35.90;21.30;;;;;;;;;;4937340;29;20241;-76
2022/03/27 05:20:11;;;;;;;33.45;19.63;;;;;;;;;;4938230;29;20196;-78
2022/03/27 05:22:37;;;;;;;28.63;19.60;;;;;;;;;;4938215;29;20286;-76
2022/03/27 05:25:03;;;;;;;30.05;20.90;;;;;;;;;;4938391;29;20263;-77
2022/03/27 05:27:29;;;;;;;31.27;20.83;;;;;;;;;;4937193;29;20190;-77
2022/03/27 05:29:55;;;;;;;33.63;20.13;;;;;;;;;;4938385;29;20182;-79
2022/03/27 05:32:21;;;;;;;31.90;19.30;;;;;;;;;;4937886;29;20438;-76
2022/03/27 05:34:47;;;;;;;33.93;23.30;;;;;;;;;;4938071;29;20475;-77
2022/03/27 05:37:13;;;;;;;36.17;22.20;;;;;;;;;;4936768;29;20851;-76
2022/03/27 05:39:39;;;;;;;30.15;20.98;;;;;;;;;;4938116;29;20922;-77
2022/03/27 05:42:06;;;;;;;31.23;20.90;;;;;;;;;;4937486;29;20204;-79
2022/03/27 05:44:32;;;;;;;36.25;21.75;;;;;;;;;;4920917;29;20429;-78
2022/03/27 05:46:58;;;;;;;37.65;22.45;;;;;;;;;;4937888;29;20644;-78
2022/03/27 05:49:24;;;;;;;38.53;21.47;;;;;;;;;;4937783;29;20209;-77
2022/03/27 05:51:50;;;;;;;32.80;21.37;;;;;;;;;;4937551;29;20516;-76
2022/03/27 05:54:16;;;;;;;34.00;20.23;;;;;;;;;;4937697;29;20422;-78
2022/03/27 05:56:42;;;;;;;32.80;21.23;;;;;;;;;;4937563;29;20418;-77
2022/03/27 05:59:08;;;;;;;26.33;18.57;;;;;;;;;;4937637;29;20769;-77
2022/03/27 06:01:34;;;;;;;28.25;20.13;;;;;;;;;;4936393;29;20433;-76
2022/03/27 06:04:00;;;;;;;28.50;19.70;;;;;;;;;;4937700;29;20185;-78
2022/03/27 06:06:29;;;;;;;31.98;19.40;;;;;;;;;;4937530;29;20449;-78
2022/03/27 06:08:57;;;;;;;32.55;20.95;;;;;;;;;;4937532;29;20293;-77
2022/03/27 06:11:23;;;;;;;28.65;19.75;;;;;;;;;;4937216;29;20278;-76
2022/03/27 06:13:49;;;;;;;31.98;20.48;;;;;;;;;;4937530;29;20523;-76
2022/03/27 06:16:16;;;;;;;29.60;20.50;;;;;;;;;;4937520;29;20262;-78
2022/03/27 06:18:42;;;;;;;34.42;20.35;;;;;;;;;;4937405;29;20429;-78
2022/03/27 06:21:08;;;;;;;31.33;19.92;;;;;;;;;;4936850;29;20263;-78
2022/03/27 06:23:34;;;;;;;34.43;21.83;;;;;;;;;;4937247;29;20547;-78
2022/03/27 06:26:00;;;;;;;31.52;21.45;;;;;;;;;;4937133;29;20410;-78
2022/03/27 06:28:26;;;;;;;34.13;21.00;;;;;;;;;;4937083;29;20205;-76
2022/03/27 06:30:52;;;;;;;32.40;20.03;;;;;;;;;;4936656;29;20197;-77
2022/03/27 06:33:18;;;;;;;30.67;20.15;;;;;;;;;;4937142;29;20414;-77
2022/03/27 06:35:45;;;;;;;31.33;20.77;;;;;;;;;;4937222;29;20687;-78
2022/03/27 06:38:10;;;;;;;35.58;23.00;;;;;;;;;;4937196;29;20424;-77
2022/03/27 06:40:36;;;;;;;34.20;21.43;;;;;;;;;;4935404;29;20548;-77
2022/03/27 06:43:04;;;;;;;32.60;20.43;;;;;;;;;;4936748;29;20424;-78
2022/03/27 06:45:30;;;;;;;30.85;21.15;;;;;;;;;;4936700;29;20476;-78
2022/03/27 06:47:56;;;;;;;31.08;21.42;;;;;;;;;;4936753;29;20214;-78
2022/03/27 06:50:22;;;;;;;30.73;20.33;;;;;;;;;;4936373;29;20614;-78
2022/03/27 06:52:48;;;;;;;31.17;20.90;;;;;;;;;;4936642;29;20465;-77
2022/03/27 06:55:15;;;;;;;27.88;21.02;;;;;;;;;;4936433;29;20181;-76
2022/03/27 06:57:41;;;;;;;32.70;20.88;;;;;;;;;;4936665;29;20183;-77
2022/03/27 07:03:02;;;;;;;33.17;21.23;;;;;;;;;;4936886;29;20277;-79
2022/03/27 07:05:39;;;;;;;30.08;21.10;;;;;;;;;;4936415;29;20179;-75
2022/03/27 07:08:09;;;;;;;32.72;22.23;;;;;;;;;;4936604;29;20294;-76
2022/03/27 07:10:36;;;;;;;31.65;20.55;;;;;;;;;;4936463;29;20174;-78
2022/03/27 07:13:02;;;;;;;31.27;21.02;;;;;;;;;;4936372;29;20181;-75
2022/03/27 07:15:28;;;;;;;35.38;22.08;;;;;;;;;;4936337;29;20175;-77
2022/03/27 07:17:54;;;;;;;27.73;20.43;;;;;;;;;;4935339;29;20667;-76
2022/03/27 07:20:25;;;;;;;31.50;19.27;;;;;;;;;;4934764;29;20783;-77
2022/03/27 07:22:52;;;;;;;33.72;20.83;;;;;;;;;;4936408;29;20201;-76
2022/03/27 07:25:18;;;;;;;28.45;19.33;;;;;;;;;;4936177;29;20191;-73
2022/03/27 07:27:44;;;;;;;25.80;18.13;;;;;;;;;;4936323;29;20201;-76
2022/03/27 07:30:10;;;;;;;25.87;20.07;;;;;;;;;;4936066;29;20417;-76
2022/03/27 07:32:37;;;;;;;29.60;20.02;;;;;;;;;;4935989;29;20515;-78
2022/03/27 07:35:03;;;;;;;28.00;21.10;;;;;;;;;;4936046;29;20206;-78
2022/03/27 07:37:32;;;;;;;27.20;20.02;;;;;;;;;;4934893;29;20594;-79
2022/03/27 07:40:00;;;;;;;30.75;21.10;;;;;;;;;;4935953;29;20178;-77
2022/03/27 07:42:26;;;;;;;28.13;20.80;;;;;;;;;;4935630;29;20201;-77
2022/03/27 07:44:52;;;;;;;29.27;21.07;;;;;;;;;;4934754;29;20186;-77
2022/03/27 07:47:18;;;;;;;39.60;21.33;;;;;;;;;;4934657;29;20512;-77
2022/03/27 07:49:43;;;;;;;29.90;21.80;;;;;;;;;;4934566;29;20471;-79
2022/03/27 07:52:09;;;;;;;30.77;21.70;;;;;;;;;;4935614;29;20852;-80
2022/03/27 07:54:35;;;;;;;31.73;22.60;;;;;;;;;;4934665;29;20426;-78
2022/03/27 07:57:01;;;;;;;34.00;24.80;;;;;;;;;;4935866;29;20786;-80
2022/03/27 07:59:27;;;;;;;28.17;22.40;;;;;;;;;;4935786;29;20271;-77
2022/03/27 08:01:54;;;;;;;33.00;23.53;;;;;;;;;;4935308;29;20513;-77
2022/03/27 08:04:20;;;;;;;32.97;24.13;;;;;;;;;;4935829;29;20472;-78
2022/03/27 08:06:47;;;;;;;35.03;23.10;;;;;;;;;;4935796;29;20263;-80
2022/03/27 08:09:14;;;;;;;34.40;22.48;;;;;;;;;;4935726;29;20507;-79
2022/03/27 08:11:42;;;;;;;34.65;24.40;;;;;;;;;;4935371;29;20232;-79
2022/03/27 08:14:08;;;;;;;32.40;22.80;;;;;;;;;;4935829;29;20272;-77
2022/03/27 08:16:35;;;;;;;31.97;21.90;;;;;;;;;;4935654;29;20186;-80
2022/03/27 08:19:01;;;;;;;28.70;21.60;;;;;;;;;;4935853;29;20883;-77
2022/03/27 08:21:28;;;;;;;25.77;20.67;;;;;;;;;;4935402;29;20225;-78
2022/03/27 08:23:54;;;;;;;27.50;21.30;;;;;;;;;;4935425;29;20439;-81
2022/03/27 08:29:04;;;;;;;28.90;19.48;;;;;;;;;;4939371;29;20489;-81
2022/03/27 08:31:31;;;;;;;23.23;17.43;;;;;;;;;;4939035;29;20594;-79
2022/03/27 08:33:57;;;;;;;28.43;19.10;;;;;;;;;;4939255;29;20418;-77
2022/03/27 08:36:23;;;;;;;22.67;19.67;;;;;;;;;;4939256;29;20422;-78
2022/03/27 08:38:49;;;;;;;28.10;19.87;;;;;;;;;;4939430;29;20428;-78
2022/03/27 08:41:16;;;;;;;30.20;19.20;;;;;;;;;;4938683;29;20465;-79
2022/03/27 08:43:43;;;;;;;23.40;17.50;;;;;;;;;;4939130;29;20450;-77
2022/03/27 08:46:09;;;;;;;25.47;18.47;;;;;;;;;;4939036;29;20498;-76
2022/03/27 08:48:37;;;;;;;23.77;18.93;;;;;;;;;;4938986;29;20460;-74
2022/03/27 08:51:03;;;;;;;24.70;17.70;;;;;;;;;;4938631;29;20432;-75
2022/03/27 08:53:41;;;;;;;23.70;18.73;;;;;;;;;;4938908;29;20492;-75
2022/03/27 08:56:07;;;;;;;20.30;17.30;;;;;;;;;;4938717;29;20416;-76
2022/03/27 08:58:32;;;;;;;21.47;17.20;;;;;;;;;;4938972;29;20755;-76
2022/03/27 09:00:58;;;;;;;19.60;17.00;;;;;;;;;;4937142;29;20445;-75
2022/03/27 09:03:25;;;;;;;22.80;19.43;;;;;;;;;;4938813;29;20437;-78
2022/03/27 09:05:51;;;;;;;22.50;17.40;;;;;;;;;;4938706;29;20504;-79
2022/03/27 09:08:17;;;;;;;24.17;17.93;;;;;;;;;;4938426;29;20797;-76
2022/03/27 09:10:43;;;;;;;26.03;19.70;;;;;;;;;;4938222;29;20421;-78
2022/03/27 09:13:13;;;;;;;24.80;18.53;;;;;;;;;;4938727;29;20708;-78
2022/03/27 09:15:40;;;;;;;25.73;17.83;;;;;;;;;;4926163;29;20431;-75
2022/03/27 09:18:10;;;;;;;20.97;17.07;;;;;;;;;;4907672;29;20947;-76
2022/03/27 09:20:37;;;;;;;22.27;17.13;;;;;;;;;;4906461;29;20971;-76
2022/03/27 09:23:11;;;;;;;21.23;16.33;;;;;;;;;;4900131;29;20922;-76
2022/03/27 09:25:57;;;;;;;25.23;19.20;;;;;;;;;;4899830;29;20426;-78
2022/03/27 09:28:32;;;;;;;22.80;17.90;;;;;;;;;;4900156;29;20521;-79
2022/03/27 09:31:00;;;;;;;21.43;17.30;;;;;;;;;;4899922;29;20423;-80
2022/03/27 09:33:31;;;;;;;22.30;18.80;;;;;;;;;;4900363;29;20470;-76
2022/03/27 09:36:03;;;;;;;24.43;17.90;;;;;;;;;;4899767;29;20404;-75
2022/03/27 09:38:29;;;;;;;26.83;19.37;;;;;;;;;;4900091;29;20430;-76
2022/03/27 09:40:55;;;;;;;26.97;20.30;;;;;;;;;;4883124;29;20459;-77
2022/03/27 09:43:22;;;;;;;23.57;18.50;;;;;;;;;;4900237;29;20431;-77
2022/03/27 09:46:01;;;;;;;22.23;18.07;;;;;;;;;;4900019;29;20446;-79
2022/03/27 09:48:28;;;;;;;20.10;18.03;;;;;;;;;;4911276;29;20440;-77
2022/03/27 09:50:55;;;;;;;20.70;17.90;;;;;;;;;;4916488;29;20502;-78
2022/03/27 09:53:21;;;;;;;23.33;19.77;;;;;;;;;;4916796;29;20401;-79
2022/03/27 09:55:52;;;;;;;22.33;19.97;;;;;;;;;;4917191;29;20438;-74
2022/03/27 09:58:32;;;;;;;21.73;19.10;;;;;;;;;;4917489;29;20441;-80
2022/03/27 10:01:30;;;;;;;20.60;18.50;;;;;;;;;;4915891;29;20442;-78
2022/03/27 10:03:57;;;;;;;21.73;18.90;;;;;;;;;;4925974;29;20857;-78
2022/03/27 10:06:37;;;;;;;21.67;18.43;;;;;;;;;;4917407;29;20422;-78
2022/03/27 10:09:04;;;;;;;21.23;18.87;;;;;;;;;;4916126;29;20950;-78
2022/03/27 10:11:30;;;;;;;18.73;16.77;;;;;;;;;;4916951;29;20494;-77
2022/03/27 10:13:57;;;;;;;20.00;17.50;;;;;;;;;;4916823;29;20394;-77
2022/03/27 10:16:28;;;;;;;20.73;16.93;;;;;;;;;;4931224;29;20783;-79
2022/03/27 10:18:55;;;;;;;19.87;17.20;;;;;;;;;;4917112;29;20521;-76
2022/03/27 10:21:22;;;;;;;20.43;17.07;;;;;;;;;;4918253;29;20454;-76
2022/03/27 10:23:49;;;;;;;21.30;19.00;;;;;;;;;;4918183;29;20442;-76
2022/03/27 10:26:15;;;;;;;21.03;18.33;;;;;;;;;;4918261;29;20558;-75
2022/03/27 10:28:42;;;;;;;20.73;18.53;;;;;;;;;;4932659;29;20892;-77
2022/03/27 10:31:09;;;;;;;20.83;18.17;;;;;;;;;;4917723;29;20442;-76
2022/03/27 10:33:35;;;;;;;20.27;18.20;;;;;;;;;;4918204;29;20435;-75
2022/03/27 10:36:07;;;;;;;19.07;17.03;;;;;;;;;;4918199;29;20478;-76
2022/03/27 10:38:52;;;;;;;21.23;18.83;;;;;;;;;;4918355;29;20426;-74
2022/03/27 10:41:21;;;;;;;18.63;16.80;;;;;;;;;;4917643;29;20795;-76
2022/03/27 10:44:05;;;;;;;20.87;18.73;;;;;;;;;;4918206;29;20748;-75
2022/03/27 10:46:31;;;;;;;29.57;26.33;;;;;;;;;;4918053;29;20418;-76
2022/03/27 10:49:10;;;;;;;30.90;26.90;;;;;;;;;;4917487;29;20473;-75
2022/03/27 10:51:38;;;;;;;31.20;28.00;;;;;;;;;;4917560;29;20439;-77
2022/03/27 10:54:14;;;;;;;38.23;30.70;;;;;;;;;;4917948;29;20498;-75
2022/03/27 10:56:48;;;;;;;27.27;24.37;;;;;;;;;;4917835;29;20433;-74
2022/03/27 10:59:21;;;;;;;25.40;22.57;;;;;;;;;;4917715;29;20922;-78
2022/03/27 11:01:51;;;;;;;27.33;23.23;;;;;;;;;;4917323;29;20439;-76
2022/03/27 11:04:17;;;;;;;32.80;23.83;;;;;;;;;;4917667;29;20469;-76
2022/03/27 11:06:44;;;;;;;29.03;25.93;;;;;;;;;;4917567;29;20452;-76
2022/03/27 11:09:13;;;;;;;28.57;25.47;;;;;;;;;;4931670;29;20535;-75
2022/03/27 11:11:44;;;;;;;26.80;23.57;;;;;;;;;;4917267;29;20814;-74
2022/03/27 11:14:10;;;;;;;26.93;24.20;;;;;;;;;;4917655;29;20494;-77
2022/03/27 11:16:55;;;;;;;29.03;25.90;;;;;;;;;;4932109;29;20434;-74
2022/03/27 11:19:40;;;;;;;25.67;22.90;;;;;;;;;;4917364;29;20486;-74
2022/03/27 11:22:06;;;;;;;25.20;22.40;;;;;;;;;;4917053;29;20427;-75
2022/03/27 11:24:32;;;;;;;24.33;21.87;;;;;;;;;;4917268;29;20439;-77
2022/03/27 11:26:58;;;;;;;26.97;24.07;;;;;;;;;;4917217;29;20431;-74
2022/03/27 11:29:25;;;;;;;26.90;22.00;;;;;;;;;;4917225;29;20481;-75
2022/03/27 11:32:07;;;;;;;24.70;22.10;;;;;;;;;;4916834;29;20446;-75
2022/03/27 11:34:34;;;;;;;27.23;23.87;;;;;;;;;;4917467;29;20399;-74
2022/03/27 11:37:14;;;;;;;23.47;20.97;;;;;;;;;;4931919;29;20418;-75
2022/03/27 11:39:40;;;;;;;22.90;20.40;;;;;;;;;;4917315;29;20418;-78
2022/03/27 11:42:21;;;;;;;24.50;22.00;;;;;;;;;;4916857;29;20450;-78
2022/03/27 11:47:36;;;;;;;24.57;20.70;;;;;;;;;;4917093;29;20421;-75
2022/03/27 11:50:03;;;;;;;20.80;18.63;;;;;;;;;;4917075;29;20411;-75
2022/03/27 11:52:29;;;;;;;22.37;19.10;;;;;;;;;;4916683;29;20441;-74
2022/03/27 11:55:05;;;;;;;19.30;17.40;;;;;;;;;;4917095;29;20411;-74
2022/03/27 11:57:41;;;;;;;20.87;18.20;;;;;;;;;;4916301;29;20816;-73
2022/03/27 12:00:07;;;;;;;17.13;15.40;;;;;;;;;;4903388;29;20528;-74
2022/03/27 12:02:40;;;;;;;20.90;17.07;;;;;;;;;;4901167;29;20442;-75
2022/03/27 12:05:06;;;;;;;21.60;18.40;;;;;;;;;;4916042;29;20510;-74
2022/03/27 12:07:49;;;;;;;22.30;18.73;;;;;;;;;;4901392;29;20837;-74
2022/03/27 12:10:15;;;;;;;23.17;18.13;;;;;;;;;;4901416;29;20411;-73
2022/03/27 12:12:55;;;;;;;22.40;19.20;;;;;;;;;;4901745;29;20440;-73
2022/03/27 12:15:22;;;;;;;21.33;17.83;;;;;;;;;;4901869;29;20419;-73
2022/03/27 12:17:48;;;;;;;19.20;15.63;;;;;;;;;;4901628;29;20424;-73
2022/03/27 12:20:15;;;;;;;20.23;16.20;;;;;;;;;;4915887;29;20424;-73
2022/03/27 12:22:51;;;;;;;19.27;15.97;;;;;;;;;;4901286;29;20459;-73
2022/03/27 12:25:21;;;;;;;20.23;16.73;;;;;;;;;;4913636;29;20429;-73
2022/03/27 12:30:49;;;;;;;24.97;17.50;;;;;;;;;;4909670;29;20470;-74
2022/03/27 12:33:18;;;;;;;18.67;16.67;;;;;;;;;;4934823;29;20410;-73
2022/03/27 12:35:45;;;;;;;19.30;15.50;;;;;;;;;;4912346;29;20438;-74
2022/03/27 12:38:11;;;;;;;19.07;15.00;;;;;;;;;;4901364;29;20423;-73
2022/03/27 12:40:44;;;;;;;18.37;15.00;;;;;;;;;;4900965;29;20415;-74
2022/03/27 12:43:11;;;;;;;18.97;14.30;;;;;;;;;;4911226;29;20422;-73
2022/03/27 12:45:40;;;;;;;18.00;14.67;;;;;;;;;;4920139;29;20477;-73
2022/03/27 12:48:08;;;;;;;19.30;14.60;;;;;;;;;;4920119;29;21005;-77
2022/03/27 12:50:36;;;;;;;17.73;15.03;;;;;;;;;;4919547;29;20778;-76
2022/03/27 12:53:06;;;;;;;16.60;14.60;;;;;;;;;;4920120;29;20463;-77
2022/03/27 12:55:41;;;;;;;15.93;12.87;;;;;;;;;;4919781;29;20434;-75
2022/03/27 12:58:07;;;;;;;19.93;14.57;;;;;;;;;;4919686;29;20954;-77
2022/03/27 13:00:40;;;;;;;17.47;14.97;;;;;;;;;;4919489;29;20947;-77
2022/03/27 13:03:09;;;;;;;19.93;15.00;;;;;;;;;;4919916;29;20414;-75
2022/03/27 13:05:35;;;;;;;17.53;13.93;;;;;;;;;;4919775;29;20419;-76
2022/03/27 13:08:01;;;;;;;15.40;13.13;;;;;;;;;;4919448;29;20922;-77
2022/03/27 13:10:28;;;;;;;18.33;13.53;;;;;;;;;;4919026;29;20422;-78
2022/03/27 13:13:23;;;;;;;16.57;13.10;;;;;;;;;;4919778;29;20759;-78
2022/03/27 13:15:54;;;;;;;16.10;13.33;;;;;;;;;;4919294;29;20426;-76
2022/03/27 13:18:27;;;;;;;15.07;11.90;;;;;;;;;;4919653;29;20482;-77
2022/03/27 13:20:53;;;;;;;15.13;12.30;;;;;;;;;;4919096;29;20438;-75
2022/03/27 13:23:19;;;;;;;17.57;14.00;;;;;;;;;;4918035;29;20497;-75
2022/03/27 13:25:46;;;;;;;16.40;12.90;;;;;;;;;;4919549;29;20430;-74
2022/03/27 13:28:12;;;;;;;18.20;13.73;;;;;;;;;;4919211;29;20473;-74
2022/03/27 13:30:38;;;;;;;17.53;14.37;;;;;;;;;;4918950;29;20779;-74
2022/03/27 13:33:05;;;;;;;20.17;15.10;;;;;;;;;;4919227;29;20411;-73
2022/03/27 13:35:31;;;;;;;17.50;13.20;;;;;;;;;;4919189;29;20414;-73
2022/03/27 13:37:57;;;;;;;16.70;13.87;;;;;;;;;;4919404;29;20474;-75
2022/03/27 13:43:09;;;;;;;15.13;12.77;;;;;;;;;;4919562;29;20418;-74
2022/03/27 13:45:35;;;;;;;19.90;14.37;;;;;;;;;;4919072;29;20422;-74
2022/03/27 13:48:01;;;;;;;19.17;15.60;;;;;;;;;;4918923;29;20462;-74
2022/03/27 13:50:28;;;;;;;19.53;14.63;;;;;;;;;;4918544;29;20934;-73
2022/03/27 13:52:54;;;;;;;15.27;12.77;;;;;;;;;;4918856;29;20418;-73
2022/03/27 13:55:20;;;;;;;14.63;12.53;;;;;;;;;;4918901;29;20437;-74
2022/03/27 13:57:46;;;;;;;16.70;12.47;;;;;;;;;;4917509;29;20426;-73
2022/03/27 14:00:12;;;;;;;19.00;15.00;;;;;;;;;;4918332;29;20423;-74
2022/03/27 14:02:38;;;;;;;16.60;13.40;;;;;;;;;;4918453;29;20958;-73
2022/03/27 14:05:04;;;;;;;15.53;13.03;;;;;;;;;;4918636;29;20411;-74
2022/03/27 14:07:30;;;;;;;16.93;14.43;;;;;;;;;;4918641;29;20411;-74
2022/03/27 14:09:56;;;;;;;14.93;13.33;;;;;;;;;;4918509;29;20505;-73
2022/03/27 14:12:22;;;;;;;16.50;14.07;;;;;;;;;;4917987;29;20463;-74
2022/03/27 14:14:48;;;;;;;14.30;12.20;;;;;;;;;;4916486;29;20462;-74
2022/03/27 14:17:14;;;;;;;14.73;12.87;;;;;;;;;;4902041;29;20416;-73
2022/03/27 14:19:40;;;;;;;14.97;13.20;;;;;;;;;;4901501;29;20405;-74
2022/03/27 14:22:06;;;;;;;15.13;13.10;;;;;;;;;;4917385;29;20434;-73
2022/03/27 14:24:32;;;;;;;14.90;12.50;;;;;;;;;;4907083;29;20443;-73
2022/03/27 14:26:58;;;;;;;13.83;12.33;;;;;;;;;;4918305;29;20760;-74
2022/03/27 14:29:24;;;;;;;13.80;12.40;;;;;;;;;;4928411;29;20454;-74
2022/03/27 14:31:52;;;;;;;15.50;12.60;;;;;;;;;;4916699;29;20932;-72
2022/03/27 14:34:18;;;;;;;13.30;11.83;;;;;;;;;;4916781;29;20466;-72